メインページ
METAR-TAF:

METAR-TAF

空港 :

レスブリッジ, アルバータ州, カナダ

緯度: 49-38N, 経度: 112-48W, 海抜: 929m

現時点の気象観測

当レポートは58分前の03:00(UTC)に作成
東/北東の風 4kt
気温 -14°C
湿度 85%
気圧 1008 hPa
視程: 40.2km
高度27000ftの雲はほとんどない

METAR: CYQL 130300Z 07004KT 25SM FEW270 M14/M16 A2976 RMK CI1 SLP132

時間: 20:58 (03:58 UTC)

予報

当レポートは4時間20分前の23:38(UTC)に作成
予報は13日の 00時(UTC)から 13日の 12時(UTC)まで有効
西/南西の風 25kt、最大35ktの突風を伴う
視程: 10km
高度7000ftの雲はほとんどない
13日の 01時(UTC)から 13日の 03時(UTC)まで徐々に
西/南西の風 12kt
13日の 04時(UTC)から 13日の 06時(UTC)まで徐々に
北/北東の風 12kt
13日の 0800時(UTC)から
北/北東の風 10kt
視程: 9.7km
高度1000ftの曇り
13日の 08時(UTC)から 13日の 12時(UTC)まで一時的に
視程: 1.6km
高度500ftの曇り

TAF: CYQL 122338Z 1300/1312 25025G35KT P6SM FEW070 BECMG 1301/1303 25012KT BECMG 1304/1306 02012KT FM130800 02010KT 6SM BR OVC010 TEMPO 1308/1312 1SM BR OVC005 RMK NXT FCST BY 130600Z

4,000以上の空港の気象観測と天気予報(METAR報とTAF報)

利用可能な観測所は地図上に黄色い丸と赤い丸で示す。

丸の上にカーソルを重ねると観測所名を参照できる。

次にクリックすると気象観測と天気予報を参照できる。

マップの切り替え:黒色「×」印の緑ボタンをクリックして拡大、「-」印の緑ボタンをクリックして縮小、緑色の三角印をクリックして隣りの地図に切り替え


METAR-TAF: